Time;durP1;ratioP1;P1;durP2;ratioP2;P2;SDS_P1;SDS_P2;PMS_P1;PMS_P2;Temp;Humidity;BMP_temperature;BMP_pressure;BME280_temperature;BME280_humidity;BME280_pressure;Samples;Min_cycle;Max_cycle;Signal;HPM_P1;HPM_P2
2023/03/11 00:00:53;;;;;;;0.70;0.70;;;6.00;99.90;;;;;;5096277;28;20695;-62
2023/03/11 00:03:23;;;;;;;1.13;0.97;;;6.00;99.90;;;;;;5095999;28;20672;-61
2023/03/11 00:05:51;;;;;;;1.03;0.93;;;6.00;99.90;;;;;;5095678;28;20204;-62
2023/03/11 00:08:19;;;;;;;1.20;1.00;;;6.00;99.90;;;;;;5095678;28;20253;-61
2023/03/11 00:10:48;;;;;;;1.73;1.00;;;5.90;99.90;;;;;;5095810;28;20588;-61
2023/03/11 00:13:16;;;;;;;2.37;0.97;;;5.90;99.90;;;;;;5094962;28;20667;-61
2023/03/11 00:15:43;;;;;;;1.10;0.90;;;5.90;99.90;;;;;;5095530;28;20200;-61
2023/03/11 00:18:12;;;;;;;1.53;0.80;;;5.90;99.90;;;;;;5095022;28;20655;-61
2023/03/11 00:20:42;;;;;;;1.57;0.80;;;5.90;99.90;;;;;;5095378;28;20559;-61
2023/03/11 00:23:08;;;;;;;0.90;0.70;;;5.90;99.90;;;;;;5095839;28;20204;-61
2023/03/11 00:25:37;;;;;;;1.13;0.80;;;5.90;99.90;;;;;;5094984;28;20690;-60
2023/03/11 00:28:06;;;;;;;1.37;0.80;;;5.80;99.90;;;;;;5095467;28;20230;-60
2023/03/11 00:30:33;;;;;;;1.50;0.80;;;5.80;99.90;;;;;;5094759;28;20687;-61
2023/03/11 00:33:00;;;;;;;0.80;0.70;;;5.90;99.90;;;;;;5094490;28;20208;-61
2023/03/11 00:35:30;;;;;;;1.03;0.87;;;6.00;99.90;;;;;;5093915;28;20212;-62
2023/03/11 00:37:58;;;;;;;1.30;1.00;;;6.00;99.90;;;;;;5094695;28;20239;-63
2023/03/11 00:40:27;;;;;;;1.50;0.80;;;5.90;99.90;;;;;;5094636;28;20215;-59
2023/03/11 00:42:54;;;;;;;2.27;1.00;;;5.90;99.90;;;;;;5095274;28;20208;-60
2023/03/11 00:45:21;;;;;;;1.77;1.03;;;5.90;99.90;;;;;;5094999;28;20211;-62
2023/03/11 00:47:48;;;;;;;1.37;1.10;;;5.90;99.90;;;;;;5097317;28;20629;-61
2023/03/11 00:50:17;;;;;;;0.80;0.80;;;5.90;99.90;;;;;;5098038;28;20721;-62
2023/03/11 00:52:46;;;;;;;1.70;1.10;;;5.80;99.90;;;;;;5098469;28;20200;-61
2023/03/11 00:55:15;;;;;;;1.43;0.90;;;5.70;99.90;;;;;;5094555;28;20215;-63
2023/03/11 00:57:42;;;;;;;1.97;0.90;;;5.70;99.90;;;;;;5094083;28;20311;-62
2023/03/11 01:00:13;;;;;;;2.60;1.00;;;5.70;99.90;;;;;;5094258;28;20261;-63
2023/03/11 01:02:39;;;;;;;1.30;0.90;;;5.50;99.90;;;;;;5094582;28;20211;-62
2023/03/11 01:05:07;;;;;;;1.90;1.00;;;5.40;99.90;;;;;;5094337;28;20208;-62
2023/03/11 01:07:33;;;;;;;3.30;1.30;;;5.50;99.90;;;;;;5094186;28;20216;-62
2023/03/11 01:10:02;;;;;;;4.07;1.40;;;5.50;99.90;;;;;;5094110;28;20204;-62
2023/03/11 01:12:28;;;;;;;1.50;1.07;;;5.50;99.90;;;;;;5094618;28;20216;-61
2023/03/11 01:14:55;;;;;;;1.67;1.30;;;5.40;99.90;;;;;;5095007;28;20583;-62
2023/03/11 01:17:22;;;;;;;1.93;1.20;;;5.40;99.90;;;;;;5095278;28;20232;-62
2023/03/11 01:19:49;;;;;;;2.37;1.17;;;5.30;99.90;;;;;;5094954;28;20204;-61
2023/03/11 01:22:15;;;;;;;2.33;1.03;;;5.30;99.90;;;;;;5094436;28;20246;-62
2023/03/11 01:24:42;;;;;;;3.20;1.00;;;5.40;99.90;;;;;;5094497;28;20262;-62
2023/03/11 01:27:10;;;;;;;1.70;0.97;;;5.30;99.90;;;;;;5095015;28;20224;-61
2023/03/11 01:29:37;;;;;;;2.30;1.30;;;5.30;99.90;;;;;;5094661;28;20204;-61
2023/03/11 01:32:05;;;;;;;1.50;0.90;;;5.30;99.90;;;;;;5093913;28;20200;-62
2023/03/11 01:34:34;;;;;;;1.77;1.10;;;5.30;99.90;;;;;;5093963;28;20600;-61
2023/03/11 01:37:01;;;;;;;1.93;1.00;;;5.30;99.90;;;;;;5093787;28;20299;-62
2023/03/11 01:39:28;;;;;;;1.97;1.20;;;5.30;99.90;;;;;;5094558;28;20209;-62
2023/03/11 01:41:55;;;;;;;1.07;0.77;;;5.20;99.90;;;;;;5094173;28;20200;-61
2023/03/11 01:44:23;;;;;;;1.03;0.90;;;5.20;99.90;;;;;;5094475;28;20364;-62
2023/03/11 01:47:27;;;;;;;0.77;0.53;;;5.20;99.90;;;;;;5094747;28;20572;-61
2023/03/11 01:49:53;;;;;;;1.33;0.70;;;5.10;99.90;;;;;;5095755;28;20204;-62
2023/03/11 01:52:20;;;;;;;1.97;0.60;;;4.90;99.90;;;;;;5096585;28;20199;-62
2023/03/11 01:54:47;;;;;;;1.83;0.47;;;4.90;99.90;;;;;;5098023;28;20204;-62
2023/03/11 01:57:15;;;;;;;2.40;0.50;;;4.80;99.90;;;;;;5099240;28;20653;-61
2023/03/11 01:59:48;;;;;;;1.83;0.60;;;4.70;99.90;;;;;;5097794;28;20239;-62
2023/03/11 02:02:19;;;;;;;1.13;0.60;;;4.70;99.90;;;;;;5102014;28;20208;-62
2023/03/11 02:04:47;;;;;;;4.47;0.70;;;4.80;99.90;;;;;;5102427;28;20211;-62
2023/03/11 02:07:14;;;;;;;2.10;0.40;;;4.80;99.90;;;;;;5106401;28;20242;-62
2023/03/11 02:09:42;;;;;;;1.50;0.43;;;4.80;99.90;;;;;;5106183;28;20200;-62
2023/03/11 02:12:10;;;;;;;1.23;0.73;;;4.80;99.90;;;;;;5105443;28;20281;-61
2023/03/11 02:14:40;;;;;;;2.37;0.40;;;4.80;99.90;;;;;;5104898;28;20593;-61
2023/03/11 02:17:10;;;;;;;3.00;0.60;;;4.80;99.90;;;;;;5106753;28;20224;-63
2023/03/11 02:19:48;;;;;;;2.27;0.70;;;4.70;99.90;;;;;;5096605;28;20207;-61
2023/03/11 02:22:16;;;;;;;1.80;0.70;;;4.70;99.90;;;;;;5103357;28;20204;-62
2023/03/11 02:24:48;;;;;;;2.70;0.70;;;4.80;99.90;;;;;;5100704;28;20208;-62
2023/03/11 02:27:18;;;;;;;0.93;0.50;;;4.80;99.90;;;;;;5097798;28;20621;-62
2023/03/11 02:29:48;;;;;;;1.30;0.47;;;4.80;99.90;;;;;;5106759;28;20204;-62
2023/03/11 02:32:15;;;;;;;1.67;0.80;;;4.80;99.90;;;;;;5109750;28;20184;-62
2023/03/11 02:34:42;;;;;;;1.97;0.60;;;4.60;99.90;;;;;;5104486;28;20200;-61
2023/03/11 02:37:11;;;;;;;0.70;0.50;;;4.60;99.90;;;;;;5096044;28;20231;-61
2023/03/11 02:39:40;;;;;;;2.00;0.83;;;4.50;99.90;;;;;;5095147;28;20683;-62
2023/03/11 02:42:13;;;;;;;2.20;0.63;;;4.50;99.90;;;;;;5094278;28;20204;-62
2023/03/11 02:44:43;;;;;;;1.07;0.80;;;4.50;99.90;;;;;;5094379;28;20192;-62
2023/03/11 02:47:10;;;;;;;2.77;0.70;;;4.30;99.90;;;;;;5094642;28;20224;-62
2023/03/11 02:49:38;;;;;;;0.97;0.53;;;4.10;99.90;;;;;;5094801;28;20212;-62
2023/03/11 02:52:05;;;;;;;2.30;0.80;;;3.90;99.90;;;;;;5094617;28;20204;-62
2023/03/11 02:54:32;;;;;;;1.80;0.87;;;3.70;99.90;;;;;;5093894;28;20672;-62
2023/03/11 02:56:59;;;;;;;2.47;0.90;;;3.60;99.90;;;;;;5120794;22;20231;-55
2023/03/11 02:59:26;;;;;;;1.83;0.70;;;3.40;99.90;;;;;;5112625;28;20196;-55
2023/03/11 03:01:54;;;;;;;1.87;0.63;;;3.40;99.90;;;;;;5112631;28;20203;-55
2023/03/11 03:04:21;;;;;;;0.50;0.50;;;3.30;99.90;;;;;;5112087;28;20689;-55
2023/03/11 03:06:47;;;;;;;1.97;0.70;;;3.30;99.90;;;;;;5110350;28;20207;-56
2023/03/11 03:09:14;;;;;;;1.70;0.90;;;3.30;99.90;;;;;;5091904;28;20204;-55
2023/03/11 03:11:41;;;;;;;2.10;0.80;;;3.30;99.90;;;;;;5092173;28;20606;-55
2023/03/11 03:14:08;;;;;;;0.90;0.80;;;3.30;99.90;;;;;;5092407;28;20204;-55
2023/03/11 03:16:34;;;;;;;1.87;0.90;;;3.20;99.90;;;;;;5095275;28;20649;-55
2023/03/11 03:19:03;;;;;;;3.27;1.30;;;3.10;99.90;;;;;;5095532;28;20228;-55
2023/03/11 03:21:30;;;;;;;1.63;1.00;;;3.10;99.90;;;;;;5095540;28;20209;-55
2023/03/11 03:23:56;;;;;;;1.80;0.93;;;3.20;99.90;;;;;;5095679;28;20212;-55
2023/03/11 03:26:23;;;;;;;2.70;0.87;;;3.20;99.90;;;;;;5095338;28;20215;-55
2023/03/11 03:28:50;;;;;;;2.40;1.27;;;3.20;99.90;;;;;;5095631;28;20270;-56
2023/03/11 03:31:17;;;;;;;2.23;1.00;;;3.20;99.90;;;;;;5095682;28;20208;-57
2023/03/11 03:33:44;;;;;;;3.33;1.20;;;3.10;99.90;;;;;;5095614;28;20208;-57
2023/03/11 03:36:14;;;;;;;2.93;0.93;;;3.00;99.90;;;;;;5095144;28;20231;-56
2023/03/11 03:38:41;;;;;;;2.07;1.10;;;3.00;99.90;;;;;;5095131;28;20223;-55
2023/03/11 03:41:08;;;;;;;1.90;0.80;;;3.00;99.90;;;;;;5095287;28;20205;-55
2023/03/11 03:43:35;;;;;;;3.23;1.20;;;3.00;99.90;;;;;;5095399;28;20261;-55
2023/03/11 03:46:04;;;;;;;2.90;1.00;;;3.20;99.90;;;;;;5094945;28;20200;-55
2023/03/11 03:48:31;;;;;;;2.53;1.13;;;3.10;99.90;;;;;;5094972;28;20686;-56
2023/03/11 03:51:03;;;;;;;2.80;0.87;;;3.20;99.90;;;;;;5095020;28;20204;-56
2023/03/11 03:53:31;;;;;;;2.57;0.90;;;3.30;99.90;;;;;;5094952;28;20625;-56
2023/03/11 03:55:57;;;;;;;3.17;1.10;;;3.40;99.90;;;;;;5095028;28;20211;-56
2023/03/11 03:58:24;;;;;;;4.70;0.90;;;3.50;99.90;;;;;;5094838;28;20714;-56
2023/03/11 04:00:55;;;;;;;2.57;0.80;;;3.70;99.90;;;;;;5095099;28;20203;-55
2023/03/11 04:03:22;;;;;;;1.37;0.70;;;3.70;99.90;;;;;;5094887;28;20211;-54
2023/03/11 04:05:49;;;;;;;2.67;1.00;;;3.80;99.90;;;;;;5094400;28;20204;-55
2023/03/11 04:08:16;;;;;;;3.47;0.70;;;3.80;99.90;;;;;;5095054;28;20220;-54
2023/03/11 04:10:44;;;;;;;1.60;0.97;;;3.80;99.90;;;;;;5094866;28;20675;-55
2023/03/11 04:13:11;;;;;;;3.43;1.20;;;3.80;99.90;;;;;;5094664;28;20652;-56
2023/03/11 04:15:38;;;;;;;2.77;0.80;;;3.70;99.90;;;;;;5094434;28;20279;-55
2023/03/11 04:18:05;;;;;;;3.00;1.13;;;3.60;99.90;;;;;;5094557;28;20267;-55
2023/03/11 04:20:32;;;;;;;4.27;1.10;;;3.60;99.90;;;;;;5094998;28;20200;-55
2023/03/11 04:22:59;;;;;;;2.67;0.80;;;3.60;99.90;;;;;;5095312;28;20579;-54
2023/03/11 04:25:25;;;;;;;2.27;0.83;;;3.50;99.90;;;;;;5094518;28;20212;-56
2023/03/11 04:27:53;;;;;;;1.80;0.70;;;3.50;99.90;;;;;;5094020;28;20251;-56
2023/03/11 04:30:20;;;;;;;3.00;0.73;;;3.40;99.90;;;;;;5094642;28;20556;-56
2023/03/11 04:32:47;;;;;;;2.43;0.90;;;3.40;99.90;;;;;;5094527;28;20200;-56
2023/03/11 04:35:14;;;;;;;3.53;1.00;;;3.40;99.90;;;;;;5094839;28;20407;-56
2023/03/11 04:37:40;;;;;;;2.83;1.00;;;3.30;99.90;;;;;;5094716;28;20617;-55
2023/03/11 04:40:09;;;;;;;3.13;1.20;;;3.20;99.90;;;;;;5094625;28;20692;-55
2023/03/11 04:42:36;;;;;;;5.80;1.80;;;3.20;99.90;;;;;;5094776;28;20642;-55
2023/03/11 04:45:05;;;;;;;4.83;1.27;;;3.20;99.90;;;;;;5094240;28;20204;-56
2023/03/11 04:47:32;;;;;;;3.87;1.10;;;3.10;99.90;;;;;;5094651;28;20229;-56
2023/03/11 04:49:59;;;;;;;3.80;1.03;;;3.00;99.90;;;;;;5095052;28;20211;-56
2023/03/11 04:52:25;;;;;;;2.77;1.20;;;3.00;99.90;;;;;;5095164;28;20682;-54
2023/03/11 04:54:52;;;;;;;2.97;0.80;;;3.00;99.90;;;;;;5095487;28;20210;-54
2023/03/11 04:57:19;;;;;;;1.60;0.90;;;2.90;99.90;;;;;;5095923;28;20242;-55
2023/03/11 04:59:45;;;;;;;3.37;1.20;;;2.90;99.90;;;;;;5095701;28;20219;-55
2023/03/11 05:02:13;;;;;;;2.67;1.10;;;2.90;99.90;;;;;;5096046;28;20664;-55
2023/03/11 05:04:40;;;;;;;2.83;1.20;;;2.90;99.90;;;;;;5095679;28;20204;-54
2023/03/11 05:07:07;;;;;;;6.17;1.00;;;2.90;99.90;;;;;;5095593;28;20239;-55
2023/03/11 05:09:35;;;;;;;3.73;0.90;;;3.00;99.90;;;;;;5096914;28;20200;-55
2023/03/11 05:12:01;;;;;;;1.97;1.10;;;3.00;99.90;;;;;;5096663;28;20209;-56
2023/03/11 05:14:28;;;;;;;6.13;1.07;;;3.00;99.90;;;;;;5096339;28;20578;-55
2023/03/11 05:16:55;;;;;;;2.40;1.00;;;3.00;99.90;;;;;;5095495;28;20235;-55
2023/03/11 05:19:33;;;;;;;1.97;0.80;;;3.00;99.90;;;;;;5095537;28;20232;-55
2023/03/11 05:22:00;;;;;;;2.50;1.03;;;2.90;99.90;;;;;;5095086;28;20296;-55
2023/03/11 05:24:27;;;;;;;2.20;1.00;;;2.90;99.90;;;;;;5094560;28;20297;-54
2023/03/11 05:26:54;;;;;;;2.27;1.30;;;2.80;99.90;;;;;;5093898;28;20227;-54
2023/03/11 05:29:22;;;;;;;2.80;1.40;;;2.70;99.90;;;;;;5094849;28;20207;-54
2023/03/11 05:31:48;;;;;;;2.47;1.10;;;2.70;99.90;;;;;;5094209;28;20200;-53
2023/03/11 05:34:16;;;;;;;5.20;1.10;;;2.60;99.90;;;;;;5094417;28;20371;-53
2023/03/11 05:36:44;;;;;;;3.10;1.10;;;2.60;99.90;;;;;;5093477;28;20697;-53
2023/03/11 05:39:11;;;;;;;3.90;0.93;;;2.60;99.90;;;;;;5092946;28;20220;-54
2023/03/11 05:41:38;;;;;;;3.07;1.67;;;2.50;99.90;;;;;;5093652;28;20207;-55
2023/03/11 05:44:05;;;;;;;6.70;1.70;;;2.50;99.90;;;;;;5093635;28;20208;-52
2023/03/11 05:46:32;;;;;;;3.60;1.07;;;2.50;99.90;;;;;;5093462;28;20694;-54
2023/03/11 05:48:59;;;;;;;4.70;1.90;;;2.40;99.90;;;;;;5093578;28;20215;-54
2023/03/11 05:51:26;;;;;;;4.77;1.73;;;2.40;99.90;;;;;;5093443;28;20200;-54
2023/03/11 05:53:55;;;;;;;3.17;1.50;;;2.50;99.90;;;;;;5093159;28;20687;-54
2023/03/11 05:56:23;;;;;;;3.70;1.40;;;2.50;99.90;;;;;;5093411;28;20208;-56
2023/03/11 05:58:50;;;;;;;3.40;1.30;;;2.40;99.90;;;;;;5093567;28;20607;-53
2023/03/11 06:01:19;;;;;;;3.80;1.40;;;2.50;99.90;;;;;;5094491;28;20208;-54
2023/03/11 06:03:46;;;;;;;2.23;1.20;;;2.40;99.90;;;;;;5093841;28;20258;-54
2023/03/11 06:06:13;;;;;;;7.20;1.47;;;2.50;99.90;;;;;;5093555;28;20212;-54
2023/03/11 06:08:44;;;;;;;6.37;1.90;;;2.50;99.90;;;;;;5093535;28;20224;-53
2023/03/11 06:11:13;;;;;;;5.60;2.13;;;2.60;99.90;;;;;;5092451;28;20204;-54
2023/03/11 06:13:40;;;;;;;6.60;3.07;;;2.60;99.90;;;;;;5092700;28;20208;-54
2023/03/11 06:16:08;;;;;;;7.50;3.20;;;2.70;99.90;;;;;;5092647;28;20695;-54
2023/03/11 06:18:35;;;;;;;3.53;1.20;;;2.70;99.90;;;;;;5092360;28;20235;-54
2023/03/11 06:21:03;;;;;;;4.07;1.50;;;2.80;99.90;;;;;;5092557;28;20680;-55
2023/03/11 06:23:30;;;;;;;3.83;1.53;;;2.90;99.90;;;;;;5092984;28;20208;-55
2023/03/11 06:25:57;;;;;;;5.70;1.50;;;3.10;99.90;;;;;;5092598;28;20762;-53
2023/03/11 06:28:26;;;;;;;7.57;2.53;;;3.30;99.90;;;;;;5092591;28;20226;-54
2023/03/11 06:30:55;;;;;;;8.90;4.43;;;3.50;99.90;;;;;;5092775;28;20254;-55
2023/03/11 06:33:22;;;;;;;6.20;1.97;;;3.60;99.90;;;;;;5092456;28;20257;-55
2023/03/11 06:35:56;;;;;;;3.43;1.40;;;3.70;99.90;;;;;;5092131;28;20207;-55
2023/03/11 06:38:23;;;;;;;3.53;1.23;;;3.80;99.90;;;;;;5092309;28;20224;-55
2023/03/11 06:40:50;;;;;;;5.87;1.07;;;4.00;99.90;;;;;;5092586;28;20582;-54
2023/03/11 06:43:17;;;;;;;5.33;1.53;;;4.10;99.90;;;;;;5092623;28;20215;-54
2023/03/11 06:45:45;;;;;;;5.37;1.30;;;4.20;99.90;;;;;;5091981;28;20668;-55
2023/03/11 06:48:12;;;;;;;3.50;1.47;;;4.20;99.90;;;;;;5092293;28;20710;-55
2023/03/11 06:50:38;;;;;;;2.97;1.10;;;4.40;99.90;;;;;;5094992;28;20215;-54
2023/03/11 06:53:06;;;;;;;3.77;1.20;;;4.50;99.90;;;;;;5096481;28;20204;-54
2023/03/11 06:55:33;;;;;;;4.20;1.30;;;4.70;99.90;;;;;;5096300;28;20210;-54
2023/03/11 06:58:00;;;;;;;5.10;1.57;;;4.70;99.90;;;;;;5096050;28;20238;-55
2023/03/11 07:00:29;;;;;;;5.73;1.60;;;4.90;99.90;;;;;;5096093;28;20211;-54
2023/03/11 07:02:57;;;;;;;3.60;1.40;;;5.00;99.90;;;;;;5096156;28;20289;-54
2023/03/11 07:05:23;;;;;;;4.50;1.67;;;5.20;99.90;;;;;;5095814;28;20614;-54
2023/03/11 07:07:53;;;;;;;5.87;1.83;;;5.40;99.90;;;;;;5096160;28;20221;-55
2023/03/11 07:10:20;;;;;;;5.63;1.40;;;5.70;99.90;;;;;;5096229;28;20224;-55
2023/03/11 07:12:47;;;;;;;5.13;1.83;;;6.10;99.90;;;;;;5096082;28;20261;-55
2023/03/11 07:15:14;;;;;;;5.50;1.90;;;6.50;99.90;;;;;;5095583;28;20767;-55
2023/03/11 07:17:41;;;;;;;7.63;2.00;;;6.90;99.90;;;;;;5095814;28;20224;-54
2023/03/11 07:20:10;;;;;;;4.60;1.03;;;7.80;99.90;;;;;;5095900;28;20220;-54
2023/03/11 07:22:37;;;;;;;6.37;1.20;;;8.50;99.90;;;;;;5095870;28;20200;-55
2023/03/11 07:25:05;;;;;;;3.93;1.60;;;9.00;99.90;;;;;;5095418;28;20204;-54
2023/03/11 07:27:31;;;;;;;5.90;1.27;;;9.30;99.90;;;;;;5095424;28;20711;-56
2023/03/11 07:29:58;;;;;;;2.37;1.10;;;9.60;99.90;;;;;;5095511;28;20663;-55
2023/03/11 07:32:25;;;;;;;5.17;1.33;;;9.40;99.90;;;;;;5095576;28;20215;-55
2023/03/11 07:34:52;;;;;;;5.20;1.60;;;9.60;99.90;;;;;;5094994;28;20789;-55
2023/03/11 07:37:20;;;;;;;3.50;1.30;;;9.60;99.70;;;;;;5095264;28;20704;-56
2023/03/11 07:39:46;;;;;;;6.43;1.33;;;9.70;99.60;;;;;;5095604;28;20231;-56
2023/03/11 07:42:13;;;;;;;3.97;1.20;;;10.60;98.90;;;;;;5095041;28;20208;-56
2023/03/11 07:44:40;;;;;;;7.13;1.60;;;11.90;96.90;;;;;;5095449;28;20238;-55
2023/03/11 07:47:07;;;;;;;5.57;1.60;;;12.80;94.60;;;;;;5094712;28;20718;-55
2023/03/11 07:49:34;;;;;;;4.10;1.47;;;12.50;94.50;;;;;;5095111;28;20226;-56
2023/03/11 07:52:01;;;;;;;3.93;1.17;;;12.50;94.50;;;;;;5095622;28;20295;-56
2023/03/11 07:54:29;;;;;;;4.17;1.20;;;12.70;93.20;;;;;;5095372;28;20557;-55
2023/03/11 07:56:55;;;;;;;3.77;1.20;;;12.30;93.10;;;;;;5094722;28;20224;-56
2023/03/11 07:59:22;;;;;;;2.97;1.30;;;11.50;93.20;;;;;;5095593;28;20228;-55
2023/03/11 08:01:49;;;;;;;5.77;1.33;;;10.50;93.90;;;;;;5094239;28;20204;-57
2023/03/11 08:04:16;;;;;;;5.00;1.40;;;9.70;95.70;;;;;;5095587;28;20249;-57
2023/03/11 08:06:45;;;;;;;4.20;1.40;;;9.30;96.40;;;;;;5094932;28;20639;-57
2023/03/11 08:09:12;;;;;;;4.93;1.30;;;9.10;96.70;;;;;;5095374;28;20204;-61
2023/03/11 08:11:40;;;;;;;4.80;1.40;;;8.70;97.20;;;;;;5095451;28;20212;-58
2023/03/11 08:14:07;;;;;;;5.83;1.73;;;8.60;97.90;;;;;;5094905;28;20200;-58
2023/03/11 08:16:34;;;;;;;5.67;2.00;;;8.50;98.10;;;;;;5095026;28;20571;-58
2023/03/11 08:19:01;;;;;;;5.07;1.40;;;8.30;98.50;;;;;;5094748;28;20730;-57
2023/03/11 08:21:30;;;;;;;5.07;1.30;;;8.10;97.90;;;;;;5095028;28;20693;-57
2023/03/11 08:23:59;;;;;;;3.20;1.40;;;7.60;99.00;;;;;;5094688;28;20212;-57
2023/03/11 08:26:26;;;;;;;4.50;1.23;;;7.50;99.70;;;;;;5094800;28;20200;-60
2023/03/11 08:28:54;;;;;;;6.73;1.60;;;7.40;99.80;;;;;;5094863;28;20254;-58
2023/03/11 08:31:24;;;;;;;6.87;2.10;;;7.40;99.70;;;;;;5094570;28;20208;-58
2023/03/11 08:33:52;;;;;;;5.70;1.93;;;7.60;99.70;;;;;;5094727;28;20258;-60
2023/03/11 08:36:20;;;;;;;3.67;1.40;;;7.50;99.70;;;;;;5094199;28;20216;-57
2023/03/11 08:38:47;;;;;;;4.53;1.30;;;7.10;99.90;;;;;;5094687;28;20259;-57
2023/03/11 08:41:14;;;;;;;5.47;1.37;;;6.70;99.70;;;;;;5094135;28;20218;-57
2023/03/11 08:43:41;;;;;;;7.23;2.23;;;6.40;99.90;;;;;;5094012;28;20208;-57
2023/03/11 08:46:15;;;;;;;4.70;1.27;;;6.10;99.90;;;;;;5093435;28;20664;-55
2023/03/11 08:48:42;;;;;;;7.80;3.63;;;6.00;99.90;;;;;;5094005;28;20228;-56
2023/03/11 08:51:11;;;;;;;8.07;1.47;;;5.90;99.90;;;;;;5093705;28;20200;-56
2023/03/11 08:53:37;;;;;;;4.77;1.30;;;6.00;99.90;;;;;;5093802;28;20207;-56
2023/03/11 08:56:04;;;;;;;4.63;1.40;;;5.90;99.90;;;;;;5093657;28;20211;-57
2023/03/11 08:58:31;;;;;;;5.93;1.47;;;5.80;99.90;;;;;;5094334;28;20235;-56
2023/03/11 09:00:58;;;;;;;2.77;1.33;;;5.90;99.90;;;;;;5093992;28;20228;-57
2023/03/11 09:03:28;;;;;;;3.03;1.30;;;6.10;99.90;;;;;;5093871;28;20207;-56
2023/03/11 09:05:57;;;;;;;6.70;1.57;;;6.40;99.90;;;;;;5093660;28;20597;-56
2023/03/11 09:08:24;;;;;;;4.93;1.30;;;6.30;99.90;;;;;;5093617;28;20582;-56
2023/03/11 09:10:50;;;;;;;5.90;1.40;;;6.10;99.90;;;;;;5093128;28;20399;-57
2023/03/11 09:13:17;;;;;;;2.93;1.30;;;6.10;99.90;;;;;;5093289;28;20299;-58
2023/03/11 09:15:44;;;;;;;3.63;1.20;;;6.10;99.90;;;;;;5093129;28;20200;-57
2023/03/11 09:18:12;;;;;;;2.77;1.17;;;6.30;99.90;;;;;;5093266;28;20325;-57
2023/03/11 09:20:41;;;;;;;3.60;1.17;;;6.50;99.90;;;;;;5093495;28;20601;-57
2023/03/11 09:23:09;;;;;;;3.87;1.10;;;6.80;99.90;;;;;;5093471;28;20211;-56
2023/03/11 09:25:35;;;;;;;3.03;1.20;;;7.20;99.90;;;;;;5092843;28;20622;-59
2023/03/11 09:28:02;;;;;;;4.00;1.40;;;7.60;99.90;;;;;;5092845;28;20228;-57
2023/03/11 09:30:29;;;;;;;4.73;1.43;;;7.70;99.70;;;;;;5092920;28;20200;-58
2023/03/11 09:32:56;;;;;;;6.13;1.50;;;7.70;99.80;;;;;;5092729;28;20208;-58
2023/03/11 09:35:22;;;;;;;4.60;1.37;;;7.70;99.80;;;;;;5092625;28;20680;-58
2023/03/11 09:37:51;;;;;;;9.90;1.50;;;8.00;99.20;;;;;;5092896;28;20228;-58
2023/03/11 09:40:21;;;;;;;4.77;1.20;;;8.40;99.30;;;;;;5092782;28;20220;-57
2023/03/11 09:42:57;;;;;;;3.83;1.20;;;8.80;98.60;;;;;;5092811;28;20211;-58
2023/03/11 09:45:27;;;;;;;3.97;1.60;;;8.90;98.10;;;;;;5092584;28;20204;-58
2023/03/11 09:48:06;;;;;;;3.90;1.27;;;8.50;97.60;;;;;;5093093;28;20606;-57
2023/03/11 09:50:39;;;;;;;5.70;1.30;;;8.00;98.00;;;;;;5092963;28;20683;-58
2023/03/11 09:53:22;;;;;;;4.70;1.43;;;7.50;98.60;;;;;;5092534;28;20510;-56
2023/03/11 09:55:50;;;;;;;3.37;0.90;;;7.10;98.90;;;;;;5092135;28;20208;-58
2023/03/11 09:58:23;;;;;;;1.90;0.90;;;7.00;99.30;;;;;;5092447;28;20293;-56
2023/03/11 10:00:51;;;;;;;3.47;1.40;;;6.70;98.80;;;;;;5093064;28;20224;-55
2023/03/11 10:03:31;;;;;;;4.00;1.30;;;6.50;98.40;;;;;;5092873;28;20243;-56
2023/03/11 10:06:12;;;;;;;2.67;1.30;;;6.20;98.70;;;;;;5093000;28;20239;-57
2023/03/11 10:08:45;;;;;;;5.23;1.13;;;6.30;98.80;;;;;;5092797;28;20289;-56
2023/03/11 10:11:20;;;;;;;2.83;1.10;;;6.30;98.10;;;;;;5093024;28;20204;-58
2023/03/11 10:13:57;;;;;;;5.50;1.73;;;6.40;98.50;;;;;;5092584;28;20272;-56
2023/03/11 10:16:31;;;;;;;3.27;1.20;;;6.60;98.70;;;;;;5092437;28;20581;-57
2023/03/11 10:19:07;;;;;;;3.43;1.00;;;7.10;98.40;;;;;;5092914;28;20228;-58
2023/03/11 10:21:43;;;;;;;4.43;1.20;;;7.60;97.80;;;;;;5093122;28;20204;-59
2023/03/11 10:24:22;;;;;;;3.47;1.20;;;8.20;97.30;;;;;;5092579;28;20299;-59
2023/03/11 10:26:52;;;;;;;6.17;1.23;;;8.70;96.10;;;;;;5092471;28;20200;-57
2023/03/11 10:29:23;;;;;;;2.13;1.10;;;8.90;95.00;;;;;;5092942;28;20204;-57
2023/03/11 10:31:57;;;;;;;2.93;0.90;;;8.70;94.90;;;;;;5093225;28;20257;-57
2023/03/11 10:34:31;;;;;;;4.30;1.43;;;8.60;94.90;;;;;;5092659;28;20588;-57
2023/03/11 10:37:03;;;;;;;5.00;1.40;;;8.50;95.50;;;;;;5092216;28;20220;-57
2023/03/11 10:39:33;;;;;;;4.13;1.10;;;8.40;95.70;;;;;;5092296;28;20224;-57
2023/03/11 10:42:02;;;;;;;2.97;1.13;;;8.30;95.80;;;;;;5092550;28;20207;-57
2023/03/11 10:44:33;;;;;;;2.70;1.07;;;8.00;95.70;;;;;;5092223;28;20731;-57
2023/03/11 10:47:01;;;;;;;4.43;1.30;;;7.70;96.50;;;;;;5092391;28;20240;-56
2023/03/11 10:49:28;;;;;;;7.00;1.70;;;7.60;97.00;;;;;;5092641;28;20236;-57
2023/03/11 10:51:57;;;;;;;7.23;2.90;;;7.70;97.00;;;;;;5092585;28;20204;-56
2023/03/11 10:54:27;;;;;;;7.37;3.50;;;7.80;96.70;;;;;;5092782;28;20208;-58
2023/03/11 10:56:57;;;;;;;3.63;1.37;;;7.80;96.50;;;;;;5092838;28;20616;-58
2023/03/11 10:59:28;;;;;;;3.90;1.10;;;7.70;96.00;;;;;;5092543;28;20626;-56
2023/03/11 11:01:57;;;;;;;4.67;1.70;;;7.40;96.30;;;;;;5092608;28;20285;-56
2023/03/11 11:04:29;;;;;;;4.67;1.30;;;7.50;96.50;;;;;;5092334;28;20558;-60
2023/03/11 11:06:56;;;;;;;5.53;1.47;;;8.00;96.50;;;;;;5092694;28;20247;-56
2023/03/11 11:09:23;;;;;;;5.43;1.20;;;8.50;95.70;;;;;;5092915;28;20212;-59
2023/03/11 11:12:11;;;;;;;3.37;1.30;;;9.10;95.20;;;;;;5093049;28;20215;-57
2023/03/11 11:14:47;;;;;;;4.20;1.40;;;9.60;94.90;;;;;;5092664;28;20588;-57
2023/03/11 11:17:21;;;;;;;2.70;1.10;;;9.90;94.10;;;;;;5092339;28;20226;-57
2023/03/11 11:19:49;;;;;;;2.57;1.10;;;10.10;93.50;;;;;;5093824;28;20224;-58
2023/03/11 11:22:18;;;;;;;4.57;1.30;;;10.20;92.90;;;;;;5093695;28;20208;-58
2023/03/11 11:24:48;;;;;;;3.87;1.27;;;10.00;93.40;;;;;;5093585;28;20200;-58
2023/03/11 11:27:21;;;;;;;3.53;1.40;;;9.80;94.00;;;;;;5092445;28;20228;-57
2023/03/11 11:30:02;;;;;;;6.17;1.10;;;9.50;93.70;;;;;;5089700;28;20200;-58
2023/03/11 11:32:29;;;;;;;5.40;1.20;;;9.20;93.90;;;;;;5073868;28;20205;-57
2023/03/11 11:35:00;;;;;;;2.40;0.90;;;9.30;93.60;;;;;;5091961;28;20310;-59
2023/03/11 11:37:31;;;;;;;5.30;1.40;;;9.30;93.50;;;;;;5093416;28;20704;-57
2023/03/11 11:40:08;;;;;;;4.70;1.33;;;9.30;93.30;;;;;;5094315;28;20704;-58
2023/03/11 11:42:41;;;;;;;3.37;1.10;;;9.30;93.90;;;;;;5095877;28;20295;-57
2023/03/11 11:45:14;;;;;;;2.47;1.07;;;9.30;94.20;;;;;;5094956;28;20695;-58
2023/03/11 11:47:47;;;;;;;3.90;1.50;;;9.30;93.70;;;;;;5094807;28;20315;-58
2023/03/11 11:50:19;;;;;;;2.20;0.97;;;9.20;94.00;;;;;;5094352;28;20196;-63
2023/03/11 11:52:50;;;;;;;6.83;1.70;;;9.10;93.90;;;;;;5095331;28;20632;-63
2023/03/11 11:55:20;;;;;;;3.57;1.17;;;9.20;93.80;;;;;;5095539;28;20204;-61
2023/03/11 11:57:50;;;;;;;3.87;1.50;;;9.60;93.20;;;;;;5096381;28;20236;-61
2023/03/11 12:00:20;;;;;;;3.83;1.10;;;10.00;92.50;;;;;;5095635;28;20224;-63
2023/03/11 12:03:06;;;;;;;1.57;0.97;;;10.10;91.20;;;;;;5097043;28;20200;-65
2023/03/11 12:05:39;;;;;;;3.03;1.00;;;10.00;91.60;;;;;;5097503;28;20200;-62
2023/03/11 12:08:15;;;;;;;2.63;1.13;;;10.00;90.80;;;;;;5096118;28;20224;-61
2023/03/11 12:10:46;;;;;;;2.30;1.13;;;10.10;90.70;;;;;;5096743;28;20210;-62
2023/03/11 12:13:36;;;;;;;2.60;1.17;;;10.30;90.70;;;;;;5097016;28;20211;-62
2023/03/11 12:16:10;;;;;;;2.67;1.10;;;10.70;90.50;;;;;;5094371;28;20580;-60
2023/03/11 12:18:42;;;;;;;2.77;1.20;;;11.10;89.60;;;;;;5094944;28;20238;-60
2023/03/11 12:21:22;;;;;;;3.50;1.30;;;11.20;89.70;;;;;;5095795;28;20228;-63
2023/03/11 12:23:59;;;;;;;4.97;1.23;;;11.10;90.50;;;;;;5094507;28;20657;-60
2023/03/11 12:26:33;;;;;;;4.57;1.90;;;11.30;87.80;;;;;;5094642;28;20227;-59
2023/03/11 12:29:06;;;;;;;3.50;1.10;;;11.20;88.30;;;;;;5095212;28;20204;-60
2023/03/11 12:31:38;;;;;;;4.03;1.20;;;11.40;85.00;;;;;;5094901;28;20555;-60
2023/03/11 12:34:06;;;;;;;4.73;1.40;;;11.50;87.30;;;;;;5094849;28;20200;-59
2023/03/11 12:36:36;;;;;;;5.40;1.20;;;11.30;85.80;;;;;;5094741;28;20212;-60
2023/03/11 12:39:06;;;;;;;4.40;1.20;;;10.90;85.70;;;;;;5095713;28;20361;-60
2023/03/11 12:41:38;;;;;;;2.77;1.20;;;10.30;87.40;;;;;;5096561;28;20298;-60
2023/03/11 12:44:25;;;;;;;5.17;1.30;;;9.70;90.80;;;;;;5095860;28;20671;-60
2023/03/11 12:47:19;;;;;;;2.03;0.87;;;9.60;89.70;;;;;;5096048;28;20204;-59
2023/03/11 12:49:48;;;;;;;1.80;1.10;;;9.50;88.30;;;;;;5095137;28;20208;-62
2023/03/11 12:52:29;;;;;;;2.20;1.00;;;9.40;90.00;;;;;;5095601;28;20218;-58
2023/03/11 12:55:29;;;;;;;3.30;1.23;;;9.50;89.90;;;;;;5094567;28;20211;-58
2023/03/11 12:58:06;;;;;;;2.70;0.90;;;9.50;87.50;;;;;;5094591;28;20281;-57
2023/03/11 13:00:55;;;;;;;1.93;1.00;;;9.30;87.60;;;;;;5094407;28;20232;-57
2023/03/11 13:03:39;;;;;;;2.60;0.90;;;9.40;89.80;;;;;;5096826;28;20644;-58
2023/03/11 13:06:24;;;;;;;2.97;1.00;;;9.80;88.70;;;;;;5096155;28;20211;-58